VYYY/RGN METAR and TAF weather

Enter ICAO airport designator
Station Type Date Time Source
VYYY METAR 2020/09/27 03:00 UTC NOAA

VYYY 270300Z 27006KT 6000 BKN016 FEW020CB BKN100 29/26 Q1009


Station Type Date Time Source
VYYY Decoded METAR 2020/09/27 03:00 UTC NOAA

Yangon, Myanmar (VYYY) 16-46N 096-10E 15M
Sep 26, 2020 - 11:00 PM EDT / 2020.09.27 0300 UTC
Wind: from the W (270 degrees) at 7 MPH (6 KT):0
Visibility: 3 mile(s):0
Sky conditions: mostly cloudy
Weather: Cumulonimbus clouds observed
Temperature: 84 F (29 C)
Dew Point: 78 F (26 C)
Relative Humidity: 83%
Pressure (altimeter): 29.80 in. Hg (1009 hPa)
ob: VYYY 270300Z 27006KT 6000 BKN016 FEW020CB BKN100 29/26 Q1009
cycle: 3

Station Type Date Time Source
VYYY TAF 2020/09/26 18:39 UTC NOAA

TAF TAF VYYY 261700Z 2618/2718 22008KT 7000 BKN015 FEW020CB BKN110
BECMG 2700/2702 06004KT 4000 BR PROB30
TEMPO 2703/2709 24010KT 6000 BKN015 FEW020CB
BECMG 2710/2712 22008KT 3000 RA/-SHRA

Example: see airport list